createdAt,value
2023-06-03T00:01:23.304Z,13.10
2023-06-03T00:04:01.430Z,13.10
2023-06-03T00:06:42.006Z,13.00
2023-06-03T00:09:08.746Z,13.00
2023-06-03T00:14:34.309Z,13.00
2023-06-03T00:17:01.044Z,12.90
2023-06-03T00:19:33.719Z,12.90
2023-06-03T00:22:12.817Z,12.90
2023-06-03T00:24:41.639Z,12.90
2023-06-03T00:27:08.563Z,12.80
2023-06-03T00:29:35.405Z,12.80
2023-06-03T00:32:11.280Z,12.70
2023-06-03T00:34:40.771Z,12.70
2023-06-03T00:37:10.391Z,12.70
2023-06-03T00:39:49.141Z,12.60
2023-06-03T00:42:16.057Z,12.60
2023-06-03T00:44:46.909Z,12.60
2023-06-03T00:47:23.233Z,12.50
2023-06-03T00:49:50.291Z,12.50
2023-06-03T00:52:18.808Z,12.50
2023-06-03T00:54:47.424Z,12.50
2023-06-03T00:57:20.069Z,12.40
2023-06-03T00:59:48.124Z,12.40
2023-06-03T01:02:14.903Z,12.40
2023-06-03T01:04:48.787Z,12.40
2023-06-03T01:07:54.195Z,12.40
2023-06-03T01:17:19.259Z,12.30
2023-06-03T01:20:01.308Z,12.30
2023-06-03T01:22:29.513Z,12.20
2023-06-03T01:25:24.152Z,12.20
2023-06-03T01:28:02.685Z,12.20
2023-06-03T01:30:45.632Z,12.20
2023-06-03T01:33:31.923Z,12.10
2023-06-03T01:36:01.314Z,12.10
2023-06-03T01:38:29.010Z,12.10
2023-06-03T01:40:56.444Z,12.10
2023-06-03T01:43:32.402Z,12.10
2023-06-03T01:46:14.374Z,12.00
2023-06-03T01:48:53.077Z,12.00
2023-06-03T01:51:26.677Z,12.00
2023-06-03T01:53:53.428Z,12.00
2023-06-03T01:59:20.305Z,11.90
2023-06-03T02:02:02.123Z,11.90
2023-06-03T02:04:43.928Z,11.90
2023-06-03T02:07:19.720Z,11.80
2023-06-03T02:09:55.807Z,11.80
2023-06-03T02:12:41.095Z,11.80
2023-06-03T02:15:16.653Z,11.80
2023-06-03T02:18:01.119Z,11.80
2023-06-03T02:20:49.233Z,11.70
2023-06-03T02:23:24.516Z,11.70
2023-06-03T02:26:06.566Z,11.70
2023-06-03T02:28:34.460Z,11.70
2023-06-03T02:31:16.564Z,11.70
2023-06-03T02:33:46.480Z,11.60
2023-06-03T02:36:15.037Z,11.60
2023-06-03T02:38:45.077Z,11.60
2023-06-03T02:41:11.982Z,11.50
2023-06-03T02:43:42.468Z,11.50
2023-06-03T02:48:52.829Z,11.50
2023-06-03T02:51:19.595Z,11.40
2023-06-03T02:53:57.040Z,11.40
2023-06-03T02:56:24.446Z,11.40
2023-06-03T02:59:06.340Z,11.40
2023-06-03T03:01:33.116Z,11.40
2023-06-03T03:04:20.571Z,11.30
2023-06-03T03:06:47.320Z,11.30
2023-06-03T03:09:15.116Z,11.30
2023-06-03T03:11:44.579Z,11.30
2023-06-03T03:14:23.378Z,11.30
2023-06-03T03:16:50.089Z,11.20
2023-06-03T03:19:23.034Z,11.20
2023-06-03T03:21:50.359Z,11.20
2023-06-03T03:24:25.862Z,11.10
2023-06-03T03:26:52.606Z,11.20
2023-06-03T03:29:22.434Z,11.10
2023-06-03T03:31:54.328Z,11.10
2023-06-03T03:34:21.657Z,11.10
2023-06-03T03:36:49.089Z,11.10
2023-06-03T03:39:31.080Z,11.10
2023-06-03T03:42:07.424Z,11.10
2023-06-03T03:44:50.862Z,11.10
2023-06-03T03:47:24.624Z,11.10
2023-06-03T03:49:53.473Z,11.00
2023-06-03T03:52:35.940Z,11.00
2023-06-03T03:55:06.251Z,11.00
2023-06-03T03:57:35.161Z,11.00
2023-06-03T04:00:05.874Z,11.00
2023-06-03T04:02:34.894Z,10.90
2023-06-03T04:05:01.724Z,10.90
2023-06-03T04:07:28.489Z,11.00
2023-06-03T04:09:55.353Z,11.00
2023-06-03T04:12:35.533Z,11.00
2023-06-03T04:15:06.109Z,11.00
2023-06-03T04:17:45.336Z,11.10
2023-06-03T04:23:31.577Z,11.10
2023-06-03T04:26:14.474Z,11.20
2023-06-03T04:28:41.217Z,11.20
2023-06-03T04:31:07.857Z,11.20
2023-06-03T04:33:50.417Z,11.30
2023-06-03T04:36:18.333Z,11.30
2023-06-03T04:38:53.401Z,11.30
2023-06-03T04:41:20.338Z,11.40
2023-06-03T04:43:59.686Z,11.50
2023-06-03T04:46:29.479Z,11.50
2023-06-03T04:49:05.010Z,11.60
2023-06-03T04:51:32.505Z,11.70
2023-06-03T04:54:21.768Z,11.70
2023-06-03T04:56:58.074Z,11.80
2023-06-03T04:59:24.815Z,11.80
2023-06-03T05:04:35.290Z,12.00
2023-06-03T05:07:01.980Z,12.10
2023-06-03T05:09:40.946Z,12.10
2023-06-03T05:12:12.283Z,12.20
2023-06-03T05:14:42.072Z,12.20
2023-06-03T05:17:14.870Z,12.30
2023-06-03T05:19:48.045Z,12.30
2023-06-03T05:22:14.798Z,12.40
2023-06-03T05:25:41.337Z,12.40
2023-06-03T05:28:11.057Z,12.40
2023-06-03T05:30:52.966Z,12.50
2023-06-03T05:36:20.032Z,12.60
2023-06-03T05:38:52.443Z,12.70
2023-06-03T05:41:19.422Z,12.70
2023-06-03T05:43:48.256Z,12.80
2023-06-03T05:46:15.445Z,12.90
2023-06-03T05:49:22.234Z,12.90
2023-06-03T05:55:44.567Z,13.10
2023-06-03T05:58:25.115Z,13.20
2023-06-03T06:00:57.312Z,13.30
2023-06-03T06:03:28.127Z,13.40
2023-06-03T06:05:55.277Z,13.40
2023-06-03T06:11:23.868Z,13.60
2023-06-03T06:14:12.426Z,13.70
2023-06-03T06:17:28.738Z,13.90
2023-06-03T06:20:03.177Z,14.10
2023-06-03T06:25:29.520Z,14.50
2023-06-03T06:28:11.369Z,14.70
2023-06-03T06:34:00.894Z,15.30
2023-06-03T06:36:31.875Z,15.70
2023-06-03T06:39:24.094Z,15.60
2023-06-03T06:41:52.024Z,15.70
2023-06-03T06:51:41.626Z,16.60
2023-06-03T06:55:02.102Z,17.90
2023-06-03T07:56:31.444Z,18.60
2023-06-03T08:01:41.246Z,18.90
2023-06-03T08:04:33.996Z,18.90
2023-06-03T08:09:55.538Z,19.10
2023-06-03T08:12:35.903Z,19.30
2023-06-03T08:15:03.443Z,19.30
2023-06-03T08:17:41.969Z,19.10
2023-06-03T08:20:09.177Z,19.40
2023-06-03T08:22:45.603Z,19.60
2023-06-03T08:25:12.851Z,19.40
2023-06-03T08:27:39.813Z,19.30
2023-06-03T08:30:22.511Z,19.20
2023-06-03T08:32:52.465Z,19.20
2023-06-03T08:35:22.594Z,19.40
2023-06-03T08:37:50.200Z,19.50
2023-06-03T08:40:17.461Z,19.50
2023-06-03T08:42:45.080Z,19.40
2023-06-03T08:45:13.608Z,19.50
2023-06-03T08:48:05.862Z,19.70
2023-06-03T08:50:37.544Z,19.60
2023-06-03T08:53:10.328Z,19.60
2023-06-03T08:55:40.943Z,19.80
2023-06-03T08:58:27.581Z,19.70
2023-06-03T09:00:59.797Z,19.80
2023-06-03T09:03:27.636Z,19.80
2023-06-03T09:05:55.838Z,19.80
2023-06-03T09:08:24.393Z,19.60
2023-06-03T09:10:51.829Z,19.60
2023-06-03T09:13:26.731Z,19.70
2023-06-03T09:15:53.864Z,19.80
2023-06-03T09:18:20.671Z,19.80
2023-06-03T09:20:50.262Z,20.00
2023-06-03T09:23:17.544Z,19.80
2023-06-03T09:25:46.952Z,20.00
2023-06-03T09:28:16.498Z,20.00
2023-06-03T09:30:45.539Z,19.70
2023-06-03T09:33:12.342Z,19.70
2023-06-03T09:35:42.408Z,19.70
2023-06-03T09:38:09.250Z,20.00
2023-06-03T09:40:38.223Z,20.00
2023-06-03T09:46:10.440Z,20.00
2023-06-03T09:48:43.129Z,20.10
2023-06-03T09:51:15.173Z,19.80
2023-06-03T09:57:14.146Z,20.00
2023-06-03T10:03:09.276Z,19.90
2023-06-03T10:05:39.011Z,20.00
2023-06-03T10:08:35.906Z,20.00
2023-06-03T10:17:37.256Z,20.50
2023-06-03T10:20:32.710Z,20.40
2023-06-03T10:23:02.378Z,20.20
2023-06-03T10:25:46.561Z,20.10
2023-06-03T10:28:15.800Z,19.80
2023-06-03T10:31:04.308Z,20.00
2023-06-03T10:33:33.185Z,19.90
2023-06-03T10:36:04.143Z,19.70
2023-06-03T10:38:34.094Z,19.80
2023-06-03T10:44:33.210Z,20.00
2023-06-03T10:47:29.657Z,19.90
2023-06-03T10:50:27.780Z,20.20
2023-06-03T10:53:08.121Z,20.30
2023-06-03T10:59:19.388Z,20.20
2023-06-03T11:02:03.419Z,20.40
2023-06-03T11:04:34.997Z,20.50
2023-06-03T11:07:02.006Z,20.70
2023-06-03T11:09:38.441Z,20.80
2023-06-03T11:12:12.316Z,20.60
2023-06-03T11:14:39.076Z,20.50
2023-06-03T11:17:10.131Z,20.20
2023-06-03T11:19:46.242Z,20.40
2023-06-03T11:22:34.409Z,20.70
2023-06-03T11:44:41.807Z,21.00
2023-06-03T12:00:10.062Z,21.10
2023-06-03T12:03:13.549Z,21.20
2023-06-03T12:15:57.760Z,21.30
2023-06-03T12:24:18.620Z,21.20
2023-06-03T12:26:48.470Z,21.60
2023-06-03T12:29:27.075Z,21.60
2023-06-03T12:32:06.455Z,21.10
2023-06-03T12:34:39.646Z,20.90
2023-06-03T12:37:30.058Z,21.30
2023-06-03T12:43:22.858Z,21.30
2023-06-03T12:52:34.603Z,21.20
2023-06-03T12:55:18.426Z,21.30
2023-06-03T13:00:37.211Z,21.60
2023-06-03T13:03:43.385Z,21.70
2023-06-03T13:09:19.884Z,21.30
2023-06-03T13:11:55.825Z,21.30
2023-06-03T13:48:14.215Z,21.00
2023-06-03T13:50:43.626Z,21.50
2023-06-03T13:53:26.570Z,21.60
2023-06-03T13:56:08.106Z,21.40
2023-06-03T13:58:35.869Z,21.30
2023-06-03T14:01:04.227Z,21.30
2023-06-03T14:03:31.402Z,21.50
2023-06-03T14:05:58.071Z,21.60
2023-06-03T14:08:26.859Z,21.80
2023-06-03T14:10:53.613Z,21.60
2023-06-03T14:13:32.505Z,21.30
2023-06-03T14:16:16.110Z,21.60
2023-06-03T14:18:45.700Z,21.50
2023-06-03T16:45:51.473Z,21.30
2023-06-03T17:09:31.662Z,21.10
2023-06-03T17:12:55.075Z,21.00
2023-06-03T17:21:23.416Z,20.80
2023-06-03T17:27:17.336Z,20.90
2023-06-03T17:35:30.319Z,20.90
2023-06-03T17:47:51.841Z,20.60
2023-06-03T17:50:21.195Z,20.60
2023-06-03T17:52:59.942Z,20.60
2023-06-03T17:55:50.692Z,20.50
2023-06-03T17:58:42.510Z,20.50
2023-06-03T18:16:31.632Z,20.40
2023-06-03T18:22:48.328Z,20.30
2023-06-03T18:25:28.159Z,20.20
2023-06-03T18:28:30.205Z,20.20
2023-06-03T18:31:22.069Z,20.20
2023-06-03T18:34:15.132Z,20.10
2023-06-03T18:40:20.282Z,19.60
2023-06-03T18:55:16.883Z,18.80
2023-06-03T18:58:27.583Z,18.70
2023-06-03T19:10:51.018Z,18.40
2023-06-03T19:13:54.682Z,18.30
2023-06-03T19:16:55.502Z,18.20
2023-06-03T19:19:43.036Z,18.20
2023-06-03T19:22:28.118Z,18.10
2023-06-03T19:25:10.257Z,18.10
2023-06-03T19:27:52.488Z,18.10
2023-06-03T19:30:37.102Z,18.00
2023-06-03T19:33:29.562Z,17.90
2023-06-03T19:35:59.611Z,17.90
2023-06-03T19:38:38.969Z,17.80
2023-06-03T19:44:08.978Z,17.70
2023-06-03T19:49:35.441Z,17.60
2023-06-03T19:55:37.539Z,17.50
2023-06-03T19:58:10.411Z,17.40
2023-06-03T20:00:45.962Z,17.40
2023-06-03T20:09:10.500Z,17.20
2023-06-03T20:12:05.318Z,17.10
2023-06-03T20:15:08.218Z,17.10
2023-06-03T20:17:52.746Z,17.00
2023-06-03T20:20:19.745Z,17.00
2023-06-03T20:22:47.149Z,16.90
2023-06-03T20:25:13.935Z,16.90
2023-06-03T20:27:40.640Z,16.80
2023-06-03T20:30:12.546Z,16.70
2023-06-03T20:32:39.441Z,16.70
2023-06-03T20:35:06.738Z,16.70
2023-06-03T20:37:36.637Z,16.60
2023-06-03T20:40:14.584Z,16.50
2023-06-03T20:42:41.515Z,16.40
2023-06-03T20:45:08.675Z,16.40
2023-06-03T20:47:35.402Z,16.30
2023-06-03T20:50:05.789Z,16.20
2023-06-03T20:52:35.872Z,16.10
2023-06-03T21:09:10.003Z,15.90
2023-06-03T21:12:42.198Z,15.80
2023-06-03T21:15:09.518Z,15.80
2023-06-03T21:17:51.891Z,15.70
2023-06-03T21:20:29.046Z,15.70
2023-06-03T21:23:33.194Z,15.60
2023-06-03T21:26:02.157Z,15.50
2023-06-03T21:28:44.202Z,15.50
2023-06-03T21:31:10.935Z,15.40
2023-06-03T21:33:52.694Z,15.40
2023-06-03T21:36:19.463Z,15.30
2023-06-03T21:38:46.164Z,15.30
2023-06-03T21:41:12.831Z,15.20
2023-06-03T21:43:39.919Z,15.20
2023-06-03T21:46:06.664Z,15.10
2023-06-03T21:48:45.406Z,15.10
2023-06-03T21:51:12.074Z,15.00
2023-06-03T21:53:38.930Z,15.00
2023-06-03T21:56:15.105Z,15.00
2023-06-03T21:58:42.309Z,14.90
2023-06-03T22:01:09.414Z,14.90
2023-06-03T22:06:16.958Z,14.80
2023-06-03T22:08:43.768Z,14.70
2023-06-03T22:11:10.565Z,14.70
2023-06-03T22:13:37.545Z,14.60
2023-06-03T22:16:04.820Z,14.60
2023-06-03T22:18:31.556Z,14.50
2023-06-03T22:20:58.417Z,14.50
2023-06-03T22:23:25.220Z,14.40
2023-06-03T22:25:52.021Z,14.40
2023-06-03T22:28:18.764Z,14.30
2023-06-03T22:30:45.464Z,14.30
2023-06-03T22:33:12.161Z,14.30
2023-06-03T22:35:40.439Z,14.20
2023-06-03T22:38:07.494Z,14.20
2023-06-03T22:40:34.417Z,14.20
2023-06-03T22:43:01.064Z,14.10
2023-06-03T22:45:27.735Z,14.10
2023-06-03T22:47:54.487Z,14.00
2023-06-03T22:50:21.137Z,14.00
2023-06-03T22:52:47.904Z,13.90
2023-06-03T22:55:15.713Z,13.90
2023-06-03T22:57:42.656Z,13.90
2023-06-03T23:00:09.821Z,13.90
2023-06-03T23:02:38.590Z,13.80
2023-06-03T23:05:05.661Z,13.80
2023-06-03T23:07:32.333Z,13.70
2023-06-03T23:10:08.677Z,13.70
2023-06-03T23:15:16.128Z,13.60
2023-06-03T23:17:42.904Z,13.50
2023-06-03T23:20:27.113Z,13.50
2023-06-03T23:22:54.584Z,13.50
2023-06-03T23:25:22.844Z,13.40
2023-06-03T23:27:49.789Z,13.40
2023-06-03T23:30:16.781Z,13.40
2023-06-03T23:32:44.190Z,13.30
2023-06-03T23:35:13.948Z,13.30
2023-06-03T23:37:43.012Z,13.30
2023-06-03T23:40:11.169Z,13.20
2023-06-03T23:42:38.851Z,13.20
2023-06-03T23:45:06.339Z,13.10
2023-06-03T23:47:33.089Z,13.10
2023-06-03T23:50:04.577Z,13.10
2023-06-03T23:52:31.719Z,13.00
2023-06-03T23:54:58.739Z,13.00
2023-06-03T23:57:27.195Z,13.00
2023-06-03T23:59:54.067Z,12.90
